createdAt,value
2023-03-18T00:01:10.672Z,4.88
2023-03-18T00:03:39.023Z,4.88
2023-03-18T00:06:10.709Z,4.90
2023-03-18T00:08:41.366Z,4.89
2023-03-18T00:11:11.032Z,4.91
2023-03-18T00:13:38.766Z,4.87
2023-03-18T00:16:07.745Z,4.87
2023-03-18T00:18:35.874Z,4.88
2023-03-18T00:21:04.851Z,4.91
2023-03-18T00:23:34.310Z,4.87
2023-03-18T00:26:03.875Z,4.86
2023-03-18T00:28:32.585Z,4.86
2023-03-18T00:31:05.293Z,4.81
2023-03-18T00:33:33.664Z,4.81
2023-03-18T00:36:01.904Z,4.72
2023-03-18T00:38:30.374Z,4.70
2023-03-18T00:41:04.517Z,4.65
2023-03-18T00:43:39.652Z,4.58
2023-03-18T00:46:07.410Z,4.59
2023-03-18T00:48:35.237Z,4.65
2023-03-18T00:51:02.982Z,4.67
2023-03-18T00:53:30.721Z,4.71
2023-03-18T00:55:58.669Z,4.66
2023-03-18T00:58:26.992Z,4.68
2023-03-18T01:00:57.099Z,4.67
2023-03-18T01:03:26.126Z,4.72
2023-03-18T01:05:54.552Z,4.71
2023-03-18T01:08:23.020Z,4.71
2023-03-18T01:10:52.646Z,4.74
2023-03-18T01:13:20.466Z,4.76
2023-03-18T01:15:48.426Z,4.68
2023-03-18T01:18:17.762Z,4.71
2023-03-18T01:20:46.041Z,4.65
2023-03-18T01:23:15.448Z,4.55
2023-03-18T01:25:45.650Z,4.41
2023-03-18T01:28:18.744Z,4.48
2023-03-18T01:30:46.662Z,4.49
2023-03-18T01:33:17.785Z,4.54
2023-03-18T01:35:46.945Z,4.57
2023-03-18T01:38:16.348Z,4.57
2023-03-18T01:40:45.246Z,4.60
2023-03-18T01:43:22.826Z,4.64
2023-03-18T01:45:53.471Z,4.61
2023-03-18T01:48:25.285Z,4.64
2023-03-18T01:51:01.016Z,4.59
2023-03-18T01:53:35.581Z,4.57
2023-03-18T01:56:09.998Z,4.54
2023-03-18T01:58:41.827Z,4.60
2023-03-18T02:01:15.459Z,4.63
2023-03-18T02:06:13.673Z,4.64
2023-03-18T02:08:42.440Z,4.65
2023-03-18T02:11:11.713Z,4.63
2023-03-18T02:13:42.466Z,4.64
2023-03-18T02:16:16.135Z,4.65
2023-03-18T02:18:51.185Z,4.70
2023-03-18T02:21:29.598Z,4.73
2023-03-18T02:24:05.769Z,4.73
2023-03-18T02:26:50.102Z,4.74
2023-03-18T02:29:29.401Z,4.75
2023-03-18T02:32:04.138Z,4.76
2023-03-18T02:34:33.239Z,4.69
2023-03-18T02:37:01.427Z,4.67
2023-03-18T02:39:30.847Z,4.67
2023-03-18T02:41:59.291Z,4.67
2023-03-18T02:44:29.729Z,4.63
2023-03-18T02:47:27.242Z,4.56
2023-03-18T02:49:55.509Z,4.54
2023-03-18T02:52:23.423Z,4.47
2023-03-18T02:54:51.481Z,4.48
2023-03-18T02:57:19.515Z,4.54
2023-03-18T02:59:49.491Z,4.48
2023-03-18T03:02:17.255Z,4.41
2023-03-18T03:04:45.206Z,4.44
2023-03-18T03:07:16.104Z,4.38
2023-03-18T03:09:48.210Z,4.30
2023-03-18T03:12:16.404Z,4.37
2023-03-18T03:14:52.334Z,4.45
2023-03-18T03:17:20.922Z,4.36
2023-03-18T03:19:49.354Z,4.28
2023-03-18T03:22:18.464Z,4.22
2023-03-18T03:24:47.564Z,4.23
2023-03-18T03:27:15.579Z,4.23
2023-03-18T03:29:44.657Z,4.25
2023-03-18T03:32:14.518Z,4.28
2023-03-18T03:34:43.356Z,4.26
2023-03-18T03:37:13.298Z,4.29
2023-03-18T03:39:41.508Z,4.23
2023-03-18T03:42:09.262Z,4.18
2023-03-18T03:44:37.669Z,4.17
2023-03-18T03:47:06.498Z,4.16
2023-03-18T03:49:35.905Z,4.08
2023-03-18T03:52:03.673Z,4.11
2023-03-18T03:54:34.661Z,4.17
2023-03-18T03:57:04.581Z,4.21
2023-03-18T03:59:32.402Z,4.24
2023-03-18T04:02:10.453Z,4.22
2023-03-18T04:04:39.940Z,4.22
2023-03-18T04:07:10.404Z,4.22
2023-03-18T04:09:38.281Z,4.24
2023-03-18T04:12:07.072Z,4.23
2023-03-18T04:14:35.359Z,4.22
2023-03-18T04:17:03.459Z,4.25
2023-03-18T04:19:31.574Z,4.20
2023-03-18T04:22:01.139Z,4.24
2023-03-18T04:24:29.250Z,4.31
2023-03-18T04:26:57.422Z,4.31
2023-03-18T04:29:25.577Z,4.35
2023-03-18T04:31:53.505Z,4.37
2023-03-18T04:34:22.676Z,4.41
2023-03-18T04:36:50.498Z,4.42
2023-03-18T04:39:19.897Z,4.43
2023-03-18T04:41:48.025Z,4.38
2023-03-18T04:44:17.747Z,4.37
2023-03-18T04:46:51.344Z,4.34
2023-03-18T04:49:19.691Z,4.29
2023-03-18T04:51:48.228Z,4.32
2023-03-18T04:54:29.643Z,4.21
2023-03-18T04:57:00.800Z,4.20
2023-03-18T04:59:30.493Z,4.13
2023-03-18T05:01:59.509Z,4.14
2023-03-18T05:04:28.424Z,4.06
2023-03-18T05:06:56.980Z,4.07
2023-03-18T05:09:34.181Z,4.06
2023-03-18T05:12:03.562Z,4.07
2023-03-18T05:14:35.681Z,4.08
2023-03-18T05:17:04.638Z,4.11
2023-03-18T05:19:35.165Z,4.14
2023-03-18T05:22:20.966Z,4.15
2023-03-18T05:24:53.838Z,4.19
2023-03-18T05:27:24.282Z,4.16
2023-03-18T05:30:01.043Z,4.21
2023-03-18T05:32:41.456Z,4.24
2023-03-18T05:35:11.662Z,4.26
2023-03-18T05:37:47.830Z,4.28
2023-03-18T05:40:18.025Z,4.28
2023-03-18T05:42:59.589Z,4.27
2023-03-18T05:45:42.209Z,4.23
2023-03-18T05:48:12.676Z,4.22
2023-03-18T05:50:50.226Z,4.24
2023-03-18T05:53:22.112Z,4.25
2023-03-18T05:55:56.284Z,4.29
2023-03-18T05:58:24.262Z,4.33
2023-03-18T06:00:58.770Z,4.36
2023-03-18T06:03:28.361Z,4.44
2023-03-18T06:05:56.186Z,4.47
2023-03-18T06:08:25.288Z,4.53
2023-03-18T06:10:53.218Z,4.60
2023-03-18T06:13:23.946Z,4.65
2023-03-18T06:15:58.302Z,4.72
2023-03-18T06:18:29.066Z,4.76
2023-03-18T06:20:58.041Z,4.81
2023-03-18T06:23:26.080Z,4.86
2023-03-18T06:25:54.080Z,4.93
2023-03-18T06:28:29.473Z,4.98
2023-03-18T06:31:01.670Z,4.96
2023-03-18T06:33:30.996Z,4.98
2023-03-18T06:36:00.223Z,5.06
2023-03-18T06:38:30.017Z,5.12
2023-03-18T06:41:01.985Z,5.26
2023-03-18T06:43:34.812Z,5.37
2023-03-18T06:46:02.899Z,5.44
2023-03-18T06:48:32.636Z,5.50
2023-03-18T06:51:00.748Z,5.58
2023-03-18T06:53:36.338Z,5.68
2023-03-18T06:56:06.060Z,5.77
2023-03-18T06:58:48.622Z,5.87
2023-03-18T07:01:19.486Z,5.94
2023-03-18T07:03:49.202Z,6.02
2023-03-18T07:06:20.889Z,6.13
2023-03-18T07:08:48.807Z,6.28
2023-03-18T07:11:17.731Z,6.42
2023-03-18T07:13:49.459Z,6.54
2023-03-18T07:16:24.632Z,6.68
2023-03-18T07:18:55.232Z,6.83
2023-03-18T07:21:23.610Z,6.98
2023-03-18T07:23:52.108Z,7.12
2023-03-18T07:26:20.338Z,7.21
2023-03-18T07:28:49.586Z,7.36
2023-03-18T07:31:17.855Z,7.47
2023-03-18T07:33:46.341Z,7.61
2023-03-18T07:36:16.356Z,7.74
2023-03-18T07:38:44.337Z,7.80
2023-03-18T07:41:12.570Z,7.93
2023-03-18T07:43:40.616Z,8.02
2023-03-18T07:46:09.954Z,8.05
2023-03-18T07:48:37.810Z,8.08
2023-03-18T07:51:06.245Z,8.15
2023-03-18T07:53:38.003Z,8.23
2023-03-18T07:56:06.237Z,8.35
2023-03-18T07:58:34.084Z,8.49
2023-03-18T08:01:02.016Z,8.62
2023-03-18T08:03:31.879Z,8.81
2023-03-18T08:06:02.904Z,9.04
2023-03-18T08:08:30.729Z,9.26
2023-03-18T08:11:00.307Z,9.46
2023-03-18T08:13:28.840Z,9.70
2023-03-18T08:15:57.348Z,9.94
2023-03-18T08:18:25.355Z,10.17
2023-03-18T08:20:54.718Z,10.38
2023-03-18T08:23:22.610Z,10.59
2023-03-18T08:25:52.044Z,10.84
2023-03-18T08:28:20.796Z,11.09
2023-03-18T08:30:48.829Z,11.24
2023-03-18T08:33:16.968Z,11.47
2023-03-18T08:35:44.810Z,11.60
2023-03-18T08:38:14.006Z,11.72
2023-03-18T08:40:42.362Z,11.81
2023-03-18T08:43:10.592Z,11.92
2023-03-18T08:45:39.526Z,12.09
2023-03-18T08:48:08.265Z,12.17
2023-03-18T08:50:36.580Z,12.33
2023-03-18T08:53:05.671Z,12.54
2023-03-18T08:55:37.380Z,12.74
2023-03-18T08:58:06.285Z,12.98
2023-03-18T09:00:36.467Z,13.16
2023-03-18T09:03:05.260Z,13.40
2023-03-18T09:05:33.882Z,13.55
2023-03-18T09:08:02.018Z,13.61
2023-03-18T09:10:30.265Z,13.76
2023-03-18T09:13:03.245Z,13.93
2023-03-18T09:15:31.566Z,13.92
2023-03-18T09:18:11.161Z,14.15
2023-03-18T09:20:40.133Z,14.32
2023-03-18T09:23:08.789Z,14.37
2023-03-18T09:25:36.974Z,14.53
2023-03-18T09:28:06.887Z,14.74
2023-03-18T09:30:34.769Z,14.95
2023-03-18T09:33:03.008Z,15.24
2023-03-18T09:35:31.170Z,15.49
2023-03-18T09:38:01.407Z,15.67
2023-03-18T09:40:31.514Z,15.87
2023-03-18T09:43:24.186Z,16.06
2023-03-18T09:46:03.118Z,16.18
2023-03-18T09:48:52.285Z,16.18
2023-03-18T09:51:40.073Z,16.34
2023-03-18T09:54:13.862Z,16.47
2023-03-18T09:56:46.215Z,16.48
2023-03-18T09:59:22.638Z,16.60
2023-03-18T10:01:55.562Z,16.67
2023-03-18T10:04:26.601Z,16.61
2023-03-18T10:07:00.088Z,16.77
2023-03-18T10:09:32.167Z,16.66
2023-03-18T10:12:08.709Z,16.77
2023-03-18T10:14:43.402Z,16.95
2023-03-18T10:17:19.416Z,17.14
2023-03-18T10:19:53.288Z,17.15
2023-03-18T10:22:44.252Z,17.08
2023-03-18T10:25:21.504Z,17.38
2023-03-18T10:28:03.808Z,17.45
2023-03-18T10:30:44.564Z,17.79
2023-03-18T10:33:21.972Z,17.87
2023-03-18T10:35:57.190Z,17.97
2023-03-18T10:38:30.758Z,18.10
2023-03-18T10:40:59.341Z,18.04
2023-03-18T10:43:31.634Z,18.23
2023-03-18T10:46:04.694Z,18.33
2023-03-18T10:48:36.376Z,18.50
2023-03-18T10:51:12.377Z,18.65
2023-03-18T10:53:58.663Z,18.75
2023-03-18T10:56:29.968Z,18.96
2023-03-18T10:58:58.264Z,18.99
2023-03-18T11:01:29.984Z,19.20
2023-03-18T11:04:03.321Z,19.19
2023-03-18T11:06:41.429Z,19.08
2023-03-18T11:09:12.320Z,19.32
2023-03-18T11:11:43.563Z,19.50
2023-03-18T11:14:17.855Z,19.59
2023-03-18T11:16:51.364Z,19.67
2023-03-18T11:19:29.303Z,19.86
2023-03-18T11:22:26.573Z,19.67
2023-03-18T11:25:13.711Z,19.88
2023-03-18T11:27:43.293Z,20.01
2023-03-18T11:30:34.474Z,20.34
2023-03-18T11:33:15.367Z,20.12
2023-03-18T11:35:50.916Z,20.31
2023-03-18T11:38:20.928Z,20.39
2023-03-18T11:40:48.743Z,20.22
2023-03-18T11:43:21.808Z,20.46
2023-03-18T11:45:56.808Z,20.56
2023-03-18T11:48:36.533Z,20.52
2023-03-18T11:51:25.886Z,20.59
2023-03-18T11:54:16.424Z,20.92
2023-03-18T11:56:48.452Z,20.99
2023-03-18T11:59:28.871Z,21.16
2023-03-18T12:02:07.917Z,21.38
2023-03-18T12:04:53.024Z,21.42
2023-03-18T12:07:42.952Z,21.37
2023-03-18T12:10:26.523Z,21.48
2023-03-18T12:13:11.644Z,21.67
2023-03-18T12:15:54.703Z,21.93
2023-03-18T12:18:42.983Z,21.83
2023-03-18T12:21:30.824Z,21.98
2023-03-18T12:24:17.391Z,22.12
2023-03-18T12:26:56.654Z,22.26
2023-03-18T12:29:55.262Z,21.56
2023-03-18T12:32:31.620Z,21.62
2023-03-18T12:35:39.088Z,21.53
2023-03-18T12:38:39.273Z,22.06
2023-03-18T12:41:17.513Z,22.33
2023-03-18T12:43:58.735Z,21.82
2023-03-18T12:46:32.997Z,22.18
2023-03-18T12:49:11.302Z,20.29
2023-03-18T12:51:45.773Z,18.95
2023-03-18T12:54:22.037Z,19.65
2023-03-18T12:56:55.612Z,20.30
2023-03-18T12:59:30.891Z,20.80
2023-03-18T13:02:18.425Z,21.18
2023-03-18T13:04:54.972Z,21.25
2023-03-18T13:07:29.657Z,20.95
2023-03-18T13:10:06.274Z,20.70
2023-03-18T13:12:38.156Z,21.35
2023-03-18T13:15:13.913Z,20.96
2023-03-18T13:17:42.613Z,21.43
2023-03-18T13:20:14.480Z,21.87
2023-03-18T13:23:01.698Z,22.18
2023-03-18T13:25:41.078Z,22.37
2023-03-18T13:28:23.136Z,22.38
2023-03-18T13:31:03.432Z,21.91
2023-03-18T13:34:06.505Z,21.75
2023-03-18T13:37:15.486Z,22.17
2023-03-18T13:40:00.905Z,22.36
2023-03-18T13:42:31.525Z,22.53
2023-03-18T13:45:09.144Z,22.72
2023-03-18T13:47:39.770Z,22.68
2023-03-18T13:50:27.380Z,22.58
2023-03-18T13:52:57.039Z,22.25
2023-03-18T13:55:32.931Z,22.35
2023-03-18T13:58:23.450Z,22.18
2023-03-18T14:01:35.591Z,22.23
2023-03-18T14:04:22.499Z,22.14
2023-03-18T14:06:55.358Z,22.00
2023-03-18T14:09:32.333Z,21.86
2023-03-18T14:12:16.943Z,21.84
2023-03-18T14:15:29.636Z,21.75
2023-03-18T14:17:59.081Z,21.76
2023-03-18T14:20:38.384Z,21.77
2023-03-18T14:23:39.466Z,21.96
2023-03-18T14:26:17.446Z,21.97
2023-03-18T14:28:48.232Z,21.80
2023-03-18T14:31:26.605Z,21.73
2023-03-18T14:34:23.318Z,21.78
2023-03-18T14:37:29.331Z,21.77
2023-03-18T14:40:04.047Z,21.82
2023-03-18T14:42:38.941Z,21.84
2023-03-18T14:45:17.175Z,21.64
2023-03-18T14:47:51.657Z,21.60
2023-03-18T14:50:30.028Z,21.54
2023-03-18T14:53:05.417Z,21.48
2023-03-18T14:55:36.453Z,21.27
2023-03-18T14:58:05.031Z,21.30
2023-03-18T15:00:35.989Z,21.28
2023-03-18T15:03:19.913Z,21.47
2023-03-18T15:05:52.331Z,21.31
2023-03-18T15:08:23.151Z,21.79
2023-03-18T15:10:52.829Z,21.95
2023-03-18T15:13:22.483Z,21.75
2023-03-18T15:15:54.689Z,21.62
2023-03-18T15:18:29.364Z,21.62
2023-03-18T15:21:01.529Z,21.65
2023-03-18T15:23:32.534Z,21.63
2023-03-18T15:26:01.053Z,21.83
2023-03-18T15:28:30.150Z,21.98
2023-03-18T15:30:59.811Z,22.09
2023-03-18T15:33:36.489Z,22.07
2023-03-18T15:36:06.996Z,21.96
2023-03-18T15:38:34.987Z,21.88
2023-03-18T15:41:05.567Z,21.82
2023-03-18T15:43:40.119Z,21.82
2023-03-18T15:46:15.091Z,21.96
2023-03-18T15:48:54.032Z,21.91
2023-03-18T15:51:28.925Z,21.94
2023-03-18T15:53:59.021Z,21.75
2023-03-18T15:56:30.167Z,21.65
2023-03-18T15:59:06.986Z,21.43
2023-03-18T16:01:35.921Z,21.19
2023-03-18T16:04:07.579Z,20.87
2023-03-18T16:06:35.414Z,20.66
2023-03-18T16:09:13.750Z,20.33
2023-03-18T16:11:41.576Z,19.96
2023-03-18T16:14:14.636Z,19.72
2023-03-18T16:16:45.328Z,19.47
2023-03-18T16:19:25.050Z,19.26
2023-03-18T16:21:53.159Z,19.06
2023-03-18T16:24:20.919Z,18.90
2023-03-18T16:26:48.723Z,18.76
2023-03-18T16:29:19.680Z,18.60
2023-03-18T16:31:49.548Z,18.41
2023-03-18T16:34:21.875Z,18.27
2023-03-18T16:36:51.972Z,18.18
2023-03-18T16:39:21.406Z,18.07
2023-03-18T16:41:49.687Z,17.93
2023-03-18T16:44:21.824Z,17.79
2023-03-18T16:46:53.763Z,17.65
2023-03-18T16:49:25.489Z,17.51
2023-03-18T16:51:54.662Z,17.37
2023-03-18T16:54:24.325Z,17.18
2023-03-18T16:56:54.852Z,17.03
2023-03-18T16:59:23.074Z,16.84
2023-03-18T17:01:55.159Z,16.63
2023-03-18T17:04:28.505Z,16.31
2023-03-18T17:06:58.870Z,16.42
2023-03-18T17:09:27.527Z,16.26
2023-03-18T17:11:59.367Z,15.87
2023-03-18T17:14:34.642Z,15.56
2023-03-18T17:17:06.638Z,15.42
2023-03-18T17:19:36.286Z,15.38
2023-03-18T17:22:17.543Z,15.18
2023-03-18T17:24:46.974Z,14.71
2023-03-18T17:27:22.572Z,14.27
2023-03-18T17:29:51.000Z,13.97
2023-03-18T17:32:22.576Z,13.73
2023-03-18T17:34:53.516Z,13.62
2023-03-18T17:37:25.221Z,13.37
2023-03-18T17:39:53.022Z,13.45
2023-03-18T17:42:51.148Z,13.28
2023-03-18T17:45:26.043Z,13.15
2023-03-18T17:47:56.543Z,13.02
2023-03-18T17:50:25.727Z,12.74
2023-03-18T17:52:56.520Z,12.65
2023-03-18T17:55:27.247Z,12.46
2023-03-18T17:57:55.000Z,12.31
2023-03-18T18:00:26.339Z,12.11
2023-03-18T18:02:55.311Z,12.08
2023-03-18T18:05:25.594Z,12.05
2023-03-18T18:07:53.408Z,11.97
2023-03-18T18:10:22.502Z,11.96
2023-03-18T18:12:50.287Z,11.82
2023-03-18T18:15:28.342Z,11.70
2023-03-18T18:17:58.003Z,11.67
2023-03-18T18:20:29.583Z,11.64
2023-03-18T18:22:58.406Z,11.46
2023-03-18T18:25:29.995Z,11.42
2023-03-18T18:27:57.943Z,11.36
2023-03-18T18:30:28.642Z,11.30
2023-03-18T18:32:58.712Z,11.27
2023-03-18T18:35:27.782Z,11.27
2023-03-18T18:37:55.544Z,11.07
2023-03-18T18:40:23.691Z,10.99
2023-03-18T18:42:51.668Z,10.88
2023-03-18T18:45:21.192Z,10.77
2023-03-18T18:47:53.272Z,10.65
2023-03-18T18:50:34.652Z,10.58
2023-03-18T18:53:02.893Z,10.53
2023-03-18T18:55:30.649Z,10.32
2023-03-18T19:01:45.542Z,10.27
2023-03-18T19:04:15.701Z,10.23
2023-03-18T19:06:50.074Z,10.15
2023-03-18T19:09:19.566Z,10.10
2023-03-18T19:11:49.488Z,10.03
2023-03-18T19:14:24.408Z,9.95
2023-03-18T19:16:53.604Z,9.86
2023-03-18T19:19:27.939Z,9.88
2023-03-18T19:21:58.798Z,9.87
2023-03-18T19:24:29.448Z,9.76
2023-03-18T19:26:59.212Z,9.87
2023-03-18T19:29:27.627Z,9.82
2023-03-18T19:31:55.646Z,9.88
2023-03-18T19:34:24.448Z,9.82
2023-03-18T19:36:57.179Z,9.66
2023-03-18T19:39:27.905Z,9.60
2023-03-18T19:41:56.083Z,9.59
2023-03-18T19:44:26.431Z,9.60
2023-03-18T19:46:55.751Z,9.62
2023-03-18T19:49:26.966Z,9.66
2023-03-18T19:51:55.914Z,9.62
2023-03-18T19:54:31.365Z,9.45
2023-03-18T19:57:01.730Z,9.38
2023-03-18T19:59:38.247Z,9.42
2023-03-18T20:02:19.197Z,9.45
2023-03-18T20:04:56.169Z,9.41
2023-03-18T20:07:27.409Z,9.47
2023-03-18T20:09:58.053Z,9.49
2023-03-18T20:12:30.868Z,9.48
2023-03-18T20:14:58.622Z,9.42
2023-03-18T20:17:30.718Z,9.38
2023-03-18T20:19:58.766Z,9.31
2023-03-18T20:22:29.746Z,9.22
2023-03-18T20:24:58.977Z,9.05
2023-03-18T20:27:26.743Z,8.97
2023-03-18T20:29:54.484Z,8.98
2023-03-18T20:32:22.418Z,8.98
2023-03-18T20:34:50.203Z,8.99
2023-03-18T20:37:23.223Z,8.95
2023-03-18T20:39:52.157Z,8.88
2023-03-18T20:42:23.541Z,8.87
2023-03-18T20:44:51.353Z,8.86
2023-03-18T20:47:19.087Z,8.88
2023-03-18T20:49:49.323Z,8.91
2023-03-18T20:52:26.608Z,8.84
2023-03-18T20:54:56.475Z,8.85
2023-03-18T20:57:35.495Z,8.81
2023-03-18T21:00:06.910Z,8.77
2023-03-18T21:02:40.306Z,8.82
2023-03-18T21:05:12.100Z,8.66
2023-03-18T21:07:40.031Z,8.58
2023-03-18T21:10:11.309Z,8.53
2023-03-18T21:12:40.588Z,8.42
2023-03-18T21:15:16.237Z,8.47
2023-03-18T21:17:46.435Z,8.31
2023-03-18T21:20:22.049Z,8.23
2023-03-18T21:22:51.823Z,8.29
2023-03-18T21:25:21.374Z,8.15
2023-03-18T21:27:51.735Z,8.21
2023-03-18T21:30:22.254Z,8.19
2023-03-18T21:32:51.172Z,8.15
2023-03-18T21:35:20.799Z,8.15
2023-03-18T21:37:48.515Z,8.11
2023-03-18T21:40:20.056Z,8.10
2023-03-18T21:42:48.069Z,8.16
2023-03-18T21:45:19.441Z,8.12
2023-03-18T21:47:47.478Z,8.16
2023-03-18T21:50:21.548Z,8.12
2023-03-18T21:52:49.725Z,8.16
2023-03-18T21:55:18.141Z,8.16
2023-03-18T21:57:48.711Z,8.14
2023-03-18T22:00:21.517Z,8.11
2023-03-18T22:02:49.744Z,8.09
2023-03-18T22:05:19.478Z,8.09
2023-03-18T22:07:47.893Z,8.13
2023-03-18T22:10:19.361Z,8.07
2023-03-18T22:12:47.553Z,8.02
2023-03-18T22:15:37.210Z,7.99
2023-03-18T22:18:08.649Z,8.00
2023-03-18T22:20:38.521Z,7.99
2023-03-18T22:23:18.368Z,8.01
2023-03-18T22:25:52.776Z,8.00
2023-03-18T22:28:28.778Z,7.93
2023-03-18T22:30:58.013Z,7.93
2023-03-18T22:33:28.907Z,7.88
2023-03-18T22:35:57.147Z,7.87
2023-03-18T22:38:25.615Z,7.85
2023-03-18T22:40:55.329Z,7.82
2023-03-18T22:43:29.819Z,7.81
2023-03-18T22:46:00.439Z,7.86
2023-03-18T22:48:31.927Z,7.88
2023-03-18T22:51:01.000Z,7.87
2023-03-18T22:53:31.790Z,7.87
2023-03-18T22:56:06.398Z,7.89
2023-03-18T22:58:34.214Z,7.95
2023-03-18T23:01:03.707Z,7.88
2023-03-18T23:03:35.354Z,7.87
2023-03-18T23:06:04.733Z,7.72
2023-03-18T23:08:33.420Z,7.55
2023-03-18T23:11:05.473Z,7.42
2023-03-18T23:13:36.744Z,7.44
2023-03-18T23:16:07.765Z,7.56
2023-03-18T23:18:39.440Z,7.63
2023-03-18T23:21:07.249Z,7.66
2023-03-18T23:23:38.219Z,7.68
2023-03-18T23:26:07.848Z,7.68
2023-03-18T23:28:44.124Z,7.64
2023-03-18T23:31:15.040Z,7.67
2023-03-18T23:33:42.865Z,7.66
2023-03-18T23:36:13.906Z,7.70
2023-03-18T23:38:44.065Z,7.72
2023-03-18T23:41:11.833Z,7.70
2023-03-18T23:43:39.559Z,7.71
2023-03-18T23:46:08.681Z,7.74
2023-03-18T23:51:19.568Z,7.83
2023-03-18T23:53:49.383Z,7.95
2023-03-18T23:56:17.249Z,7.98
2023-03-18T23:58:45.025Z,8.01
